createdAt,value
2022-09-20T00:00:16.830Z,99.99
2022-09-20T00:01:06.903Z,99.99
2022-09-20T00:01:56.822Z,99.99
2022-09-20T00:02:46.809Z,99.99
2022-09-20T00:03:36.791Z,99.99
2022-09-20T00:04:26.829Z,99.99
2022-09-20T00:05:16.895Z,99.99
2022-09-20T00:06:06.769Z,99.99
2022-09-20T00:06:56.763Z,99.99
2022-09-20T00:07:46.766Z,99.99
2022-09-20T00:08:36.740Z,99.99
2022-09-20T00:09:26.739Z,99.99
2022-09-20T00:10:16.744Z,99.99
2022-09-20T00:11:06.725Z,99.99
2022-09-20T00:11:56.710Z,99.99
2022-09-20T00:12:46.703Z,99.99
2022-09-20T00:13:36.680Z,99.99
2022-09-20T00:14:26.673Z,99.99
2022-09-20T00:15:16.688Z,99.99
2022-09-20T00:16:06.750Z,99.99
2022-09-20T00:16:56.710Z,99.99
2022-09-20T00:17:46.637Z,99.99
2022-09-20T00:18:36.628Z,99.99
2022-09-20T00:19:26.629Z,99.99
2022-09-20T00:20:16.607Z,99.99
2022-09-20T00:21:06.612Z,99.99
2022-09-20T00:21:56.618Z,99.99
2022-09-20T00:22:46.586Z,99.99
2022-09-20T00:23:36.568Z,99.99
2022-09-20T00:24:26.568Z,99.99
2022-09-20T00:25:16.597Z,99.99
2022-09-20T00:26:06.566Z,99.99
2022-09-20T00:26:56.546Z,99.99
2022-09-20T00:27:46.585Z,99.99
2022-09-20T00:28:36.777Z,99.99
2022-09-20T00:29:26.542Z,99.99
2022-09-20T00:30:16.514Z,99.99
2022-09-20T00:31:06.516Z,99.99
2022-09-20T00:31:56.555Z,99.99
2022-09-20T00:32:46.505Z,99.99
2022-09-20T00:33:36.462Z,99.99
2022-09-20T00:34:26.465Z,99.99
2022-09-20T00:35:16.484Z,99.99
2022-09-20T00:36:06.453Z,99.99
2022-09-20T00:36:56.425Z,99.99
2022-09-20T00:37:46.426Z,99.99
2022-09-20T00:38:36.453Z,99.99
2022-09-20T00:39:26.413Z,99.99
2022-09-20T00:40:16.431Z,99.99
2022-09-20T00:41:06.392Z,99.99
2022-09-20T00:41:56.375Z,99.99
2022-09-20T00:42:46.365Z,99.99
2022-09-20T00:43:36.360Z,99.99
2022-09-20T00:44:26.421Z,99.99
2022-09-20T00:45:16.354Z,99.99
2022-09-20T00:46:06.490Z,99.99
2022-09-20T00:46:56.333Z,99.99
2022-09-20T00:47:46.306Z,99.99
2022-09-20T00:48:36.339Z,99.99
2022-09-20T00:49:26.297Z,99.99
2022-09-20T00:50:16.294Z,99.99
2022-09-20T00:51:06.276Z,99.99
2022-09-20T00:51:56.266Z,99.99
2022-09-20T00:52:46.251Z,99.99
2022-09-20T00:53:36.265Z,99.99
2022-09-20T00:54:26.272Z,99.99
2022-09-20T00:55:16.286Z,99.99
2022-09-20T00:56:06.213Z,99.99
2022-09-20T00:56:56.211Z,99.99
2022-09-20T00:57:46.204Z,99.99
2022-09-20T00:58:36.192Z,99.99
2022-09-20T00:59:26.191Z,99.99
2022-09-20T01:00:16.202Z,99.99
2022-09-20T01:01:06.199Z,99.99
2022-09-20T01:01:56.186Z,99.99
2022-09-20T01:02:46.218Z,99.99
2022-09-20T01:03:36.132Z,99.99
2022-09-20T01:04:26.133Z,99.99
2022-09-20T01:05:16.112Z,99.99
2022-09-20T01:06:06.132Z,99.99
2022-09-20T01:06:56.098Z,99.99
2022-09-20T01:07:46.098Z,99.99
2022-09-20T01:08:36.071Z,99.99
2022-09-20T01:09:26.071Z,99.99
2022-09-20T01:10:16.064Z,99.99
2022-09-20T01:11:06.057Z,99.99
2022-09-20T01:11:56.081Z,99.99
2022-09-20T01:12:46.273Z,99.99
2022-09-20T01:13:36.041Z,99.99
2022-09-20T01:14:26.032Z,99.99
2022-09-20T01:15:16.049Z,99.99
2022-09-20T01:16:06.066Z,99.99
2022-09-20T01:16:56.023Z,99.99
2022-09-20T01:17:46.005Z,99.99
2022-09-20T01:18:35.998Z,99.99
2022-09-20T01:19:25.979Z,99.99
2022-09-20T01:20:15.979Z,99.99
2022-09-20T01:21:05.947Z,99.99
2022-09-20T01:21:55.946Z,99.99
2022-09-20T01:22:45.919Z,99.99
2022-09-20T01:23:35.920Z,99.99
2022-09-20T01:24:25.918Z,99.99
2022-09-20T01:25:15.929Z,99.99
2022-09-20T01:26:05.910Z,99.99
2022-09-20T01:26:55.887Z,99.99
2022-09-20T01:27:45.869Z,99.99
2022-09-20T01:28:35.856Z,99.99
2022-09-20T01:29:25.863Z,99.99
2022-09-20T01:30:16.059Z,99.99
2022-09-20T01:31:05.837Z,99.99
2022-09-20T01:31:55.880Z,99.99
2022-09-20T01:32:45.825Z,99.99
2022-09-20T01:33:35.798Z,99.99
2022-09-20T01:34:25.801Z,99.99
2022-09-20T01:35:15.827Z,99.99
2022-09-20T01:36:05.799Z,99.99
2022-09-20T01:36:55.778Z,99.99
2022-09-20T01:37:45.799Z,99.99
2022-09-20T01:38:35.756Z,99.99
2022-09-20T01:39:25.758Z,99.99
2022-09-20T01:40:15.795Z,99.99
2022-09-20T01:41:05.716Z,99.99
2022-09-20T01:41:55.948Z,99.99
2022-09-20T01:42:45.706Z,99.99
2022-09-20T01:43:35.692Z,99.99
2022-09-20T01:44:25.696Z,99.99
2022-09-20T01:45:15.694Z,99.99
2022-09-20T01:46:05.738Z,99.99
2022-09-20T01:46:55.659Z,99.99
2022-09-20T01:47:45.707Z,99.99
2022-09-20T01:48:35.641Z,99.99
2022-09-20T01:49:25.633Z,99.99
2022-09-20T01:50:15.622Z,99.99
2022-09-20T01:51:05.614Z,99.99
2022-09-20T01:51:55.605Z,99.99
2022-09-20T01:52:45.605Z,99.99
2022-09-20T01:53:36.838Z,99.99
2022-09-20T01:54:25.594Z,99.99
2022-09-20T01:55:15.590Z,99.99
2022-09-20T01:56:05.553Z,99.99
2022-09-20T01:56:55.554Z,99.99
2022-09-20T01:57:45.588Z,99.99
2022-09-20T01:58:35.540Z,99.99
2022-09-20T01:59:25.818Z,99.99
2022-09-20T02:00:15.502Z,99.99
2022-09-20T02:01:05.589Z,99.99
2022-09-20T02:01:55.565Z,99.99
2022-09-20T02:02:45.547Z,99.99
2022-09-20T02:03:35.482Z,99.99
2022-09-20T02:04:25.480Z,99.99
2022-09-20T02:05:15.703Z,99.99
2022-09-20T02:06:05.445Z,99.99
2022-09-20T02:06:55.445Z,99.99
2022-09-20T02:07:45.434Z,99.99
2022-09-20T02:08:35.414Z,99.99
2022-09-20T02:09:25.415Z,99.99
2022-09-20T02:10:15.411Z,99.99
2022-09-20T02:11:06.452Z,99.99
2022-09-20T02:11:55.383Z,99.99
2022-09-20T02:12:45.372Z,99.99
2022-09-20T02:13:35.360Z,99.99
2022-09-20T02:14:25.352Z,99.99
2022-09-20T02:15:15.390Z,99.99
2022-09-20T02:16:05.340Z,99.99
2022-09-20T02:16:55.393Z,99.99
2022-09-20T02:17:45.333Z,99.99
2022-09-20T02:18:35.322Z,99.99
2022-09-20T02:19:25.292Z,99.99
2022-09-20T02:20:15.286Z,99.99
2022-09-20T02:21:05.284Z,99.99
2022-09-20T02:21:55.271Z,99.99
2022-09-20T02:22:45.283Z,99.99
2022-09-20T02:23:35.255Z,99.99
2022-09-20T02:24:25.452Z,99.99
2022-09-20T02:25:15.264Z,99.99
2022-09-20T02:26:05.221Z,99.99
2022-09-20T02:26:55.219Z,99.99
2022-09-20T02:27:45.204Z,99.99
2022-09-20T02:28:35.194Z,99.99
2022-09-20T02:29:25.206Z,99.99
2022-09-20T02:30:15.380Z,99.99
2022-09-20T02:31:05.164Z,99.99
2022-09-20T02:31:55.226Z,99.99
2022-09-20T02:32:45.161Z,99.99
2022-09-20T02:33:35.145Z,99.99
2022-09-20T02:34:25.144Z,99.99
2022-09-20T02:35:15.150Z,99.99
2022-09-20T02:36:05.161Z,99.99
2022-09-20T02:36:55.111Z,99.99
2022-09-20T02:37:45.107Z,99.99
2022-09-20T02:38:35.108Z,99.99
2022-09-20T02:39:25.082Z,99.99
2022-09-20T02:40:15.115Z,99.99
2022-09-20T02:41:05.061Z,99.99
2022-09-20T02:41:55.251Z,99.99
2022-09-20T02:42:45.038Z,99.99
2022-09-20T02:43:35.040Z,99.99
2022-09-20T02:44:25.012Z,99.99
2022-09-20T02:45:15.059Z,99.99
2022-09-20T02:46:05.102Z,99.99
2022-09-20T02:46:55.045Z,99.99
2022-09-20T02:47:45.016Z,99.99
2022-09-20T02:48:34.977Z,99.99
2022-09-20T02:49:24.982Z,99.99
2022-09-20T02:50:14.961Z,99.99
2022-09-20T02:51:04.938Z,99.99
2022-09-20T02:51:54.939Z,99.99
2022-09-20T02:52:44.927Z,99.99
2022-09-20T02:53:34.977Z,99.99
2022-09-20T02:54:24.930Z,99.99
2022-09-20T02:55:14.904Z,99.99
2022-09-20T02:56:04.896Z,99.99
2022-09-20T02:56:54.896Z,99.99
2022-09-20T02:57:44.880Z,99.99
2022-09-20T02:58:34.870Z,99.99
2022-09-20T02:59:24.893Z,99.99
2022-09-20T03:00:14.846Z,99.99
2022-09-20T03:01:04.888Z,99.99
2022-09-20T03:01:54.890Z,99.99
2022-09-20T03:02:44.881Z,99.99
2022-09-20T03:03:34.826Z,99.99
2022-09-20T03:04:24.805Z,99.99
2022-09-20T03:05:14.863Z,99.99
2022-09-20T03:06:04.793Z,99.99
2022-09-20T03:06:54.821Z,99.99
2022-09-20T03:07:44.766Z,99.99
2022-09-20T03:08:34.764Z,99.99
2022-09-20T03:09:24.755Z,99.99
2022-09-20T03:10:14.741Z,99.99
2022-09-20T03:11:06.413Z,99.99
2022-09-20T03:11:54.724Z,99.99
2022-09-20T03:12:44.721Z,99.99
2022-09-20T03:13:34.704Z,99.99
2022-09-20T03:14:24.685Z,99.99
2022-09-20T03:15:14.685Z,99.99
2022-09-20T03:16:04.709Z,99.99
2022-09-20T03:16:54.754Z,99.99
2022-09-20T03:17:44.653Z,99.99
2022-09-20T03:18:34.655Z,99.99
2022-09-20T03:19:24.634Z,99.99
2022-09-20T03:20:14.630Z,99.99
2022-09-20T03:21:04.635Z,99.99
2022-09-20T03:21:54.622Z,99.99
2022-09-20T03:22:44.623Z,99.99
2022-09-20T03:23:34.604Z,99.99
2022-09-20T03:24:24.579Z,99.99
2022-09-20T03:25:14.586Z,99.99
2022-09-20T03:26:04.561Z,99.99
2022-09-20T03:26:54.552Z,99.99
2022-09-20T03:27:44.543Z,99.99
2022-09-20T03:28:34.742Z,99.99
2022-09-20T03:29:24.534Z,99.99
2022-09-20T03:30:14.523Z,99.99
2022-09-20T03:31:04.511Z,99.99
2022-09-20T03:31:54.619Z,99.99
2022-09-20T03:32:44.480Z,99.99
2022-09-20T03:33:34.671Z,99.99
2022-09-20T03:34:24.471Z,99.99
2022-09-20T03:35:14.470Z,99.99
2022-09-20T03:36:04.459Z,99.99
2022-09-20T03:36:54.440Z,99.99
2022-09-20T03:37:44.431Z,99.99
2022-09-20T03:38:34.420Z,99.99
2022-09-20T03:39:24.441Z,99.99
2022-09-20T03:40:14.451Z,99.99
2022-09-20T03:41:04.401Z,99.99
2022-09-20T03:41:54.394Z,99.99
2022-09-20T03:42:44.380Z,99.99
2022-09-20T03:43:34.381Z,99.99
2022-09-20T03:44:24.374Z,99.99
2022-09-20T03:45:14.378Z,99.99
2022-09-20T03:46:04.448Z,99.99
2022-09-20T03:46:54.368Z,99.99
2022-09-20T03:47:44.328Z,99.99
2022-09-20T03:48:34.333Z,99.99
2022-09-20T03:49:24.298Z,99.99
2022-09-20T03:50:14.301Z,99.99
2022-09-20T03:51:04.310Z,99.99
2022-09-20T03:51:54.290Z,99.99
2022-09-20T03:52:44.267Z,99.99
2022-09-20T03:53:34.257Z,99.99
2022-09-20T03:54:24.251Z,99.99
2022-09-20T03:55:14.264Z,99.99
2022-09-20T03:56:05.918Z,99.99
2022-09-20T03:56:54.217Z,99.99
2022-09-20T03:57:44.208Z,99.99
2022-09-20T03:58:34.205Z,99.99
2022-09-20T03:59:24.213Z,99.99
2022-09-20T04:00:14.236Z,99.99
2022-09-20T04:01:04.213Z,99.99
2022-09-20T04:01:54.227Z,99.99
2022-09-20T04:02:44.229Z,99.99
2022-09-20T04:03:34.155Z,99.99
2022-09-20T04:04:24.136Z,99.99
2022-09-20T04:05:14.135Z,99.99
2022-09-20T04:06:04.122Z,99.99
2022-09-20T04:06:54.116Z,99.99
2022-09-20T04:07:44.130Z,99.99
2022-09-20T04:08:38.080Z,99.99
2022-09-20T04:09:25.108Z,99.99
2022-09-20T04:10:14.084Z,99.99
2022-09-20T04:11:04.070Z,99.99
2022-09-20T04:11:54.065Z,99.99
2022-09-20T04:12:44.077Z,99.99
2022-09-20T04:13:34.043Z,99.99
2022-09-20T04:14:24.036Z,99.99
2022-09-20T04:15:14.050Z,99.99
2022-09-20T04:16:04.021Z,99.99
2022-09-20T04:16:54.073Z,99.99
2022-09-20T04:17:43.999Z,99.99
2022-09-20T04:18:34.213Z,99.99
2022-09-20T04:19:23.975Z,99.99
2022-09-20T04:20:13.975Z,99.99
2022-09-20T04:21:03.953Z,99.99
2022-09-20T04:21:53.964Z,99.99
2022-09-20T04:22:44.188Z,99.99
2022-09-20T04:23:33.942Z,99.99
2022-09-20T04:24:23.951Z,99.99
2022-09-20T04:25:13.933Z,99.99
2022-09-20T04:26:03.943Z,99.99
2022-09-20T04:26:53.897Z,99.99
2022-09-20T04:27:43.903Z,99.99
2022-09-20T04:28:33.891Z,99.99
2022-09-20T04:29:23.871Z,99.99
2022-09-20T04:30:13.894Z,99.99
2022-09-20T04:31:03.859Z,99.99
2022-09-20T04:31:54.380Z,99.99
2022-09-20T04:32:43.831Z,99.99
2022-09-20T04:33:33.825Z,99.99
2022-09-20T04:34:23.821Z,99.99
2022-09-20T04:35:13.821Z,99.99
2022-09-20T04:36:04.020Z,99.99
2022-09-20T04:36:53.790Z,99.99
2022-09-20T04:37:43.770Z,99.99
2022-09-20T04:38:33.777Z,99.99
2022-09-20T04:39:23.751Z,99.99
2022-09-20T04:40:13.826Z,99.99
2022-09-20T04:41:03.737Z,99.99
2022-09-20T04:41:53.759Z,99.99
2022-09-20T04:42:43.759Z,99.99
2022-09-20T04:43:33.720Z,99.99
2022-09-20T04:44:23.699Z,99.99
2022-09-20T04:45:13.699Z,99.99
2022-09-20T04:46:03.725Z,99.99
2022-09-20T04:46:56.019Z,99.99
2022-09-20T04:47:43.659Z,99.99
2022-09-20T04:48:33.677Z,99.99
2022-09-20T04:49:23.646Z,99.99
2022-09-20T04:50:13.638Z,99.99
2022-09-20T04:51:03.629Z,99.99
2022-09-20T04:51:53.828Z,99.99
2022-09-20T04:52:43.604Z,99.99
2022-09-20T04:53:33.599Z,99.99
2022-09-20T04:54:23.587Z,99.99
2022-09-20T04:55:13.598Z,99.99
2022-09-20T04:56:03.599Z,99.99
2022-09-20T04:56:53.564Z,99.99
2022-09-20T04:57:43.791Z,99.99
2022-09-20T04:58:33.543Z,99.99
2022-09-20T04:59:23.537Z,99.99
2022-09-20T05:00:13.528Z,99.99
2022-09-20T05:01:03.589Z,99.99
2022-09-20T05:01:53.539Z,99.99
2022-09-20T05:02:43.570Z,99.99
2022-09-20T05:03:33.532Z,99.99
2022-09-20T05:04:23.487Z,99.99
2022-09-20T05:05:13.476Z,99.99
2022-09-20T05:06:03.461Z,99.99
2022-09-20T05:06:53.457Z,99.99
2022-09-20T05:07:43.452Z,99.99
2022-09-20T05:08:33.444Z,99.99
2022-09-20T05:09:23.464Z,99.99
2022-09-20T05:10:13.425Z,99.99
2022-09-20T05:11:03.412Z,99.99
2022-09-20T05:11:53.403Z,99.99
2022-09-20T05:12:43.391Z,99.99
2022-09-20T05:13:33.387Z,99.99
2022-09-20T05:14:23.395Z,99.99
2022-09-20T05:15:13.462Z,99.99
2022-09-20T05:16:03.410Z,99.99
2022-09-20T05:16:53.390Z,99.99
2022-09-20T05:17:43.343Z,99.99
2022-09-20T05:18:33.326Z,99.99
2022-09-20T05:19:23.312Z,99.99
2022-09-20T05:20:13.304Z,99.99
2022-09-20T05:21:03.358Z,99.99
2022-09-20T05:21:53.285Z,99.99
2022-09-20T05:22:43.494Z,99.99
2022-09-20T05:23:33.281Z,99.99
2022-09-20T05:24:23.261Z,99.99
2022-09-20T05:25:13.273Z,99.99
2022-09-20T05:26:03.306Z,99.99
2022-09-20T05:26:53.239Z,99.99
2022-09-20T05:27:43.215Z,99.99
2022-09-20T05:28:33.223Z,99.99
2022-09-20T05:29:23.201Z,99.99
2022-09-20T05:30:13.223Z,99.99
2022-09-20T05:31:03.181Z,99.99
2022-09-20T05:31:53.225Z,99.99
2022-09-20T05:32:43.163Z,99.99
2022-09-20T05:33:33.159Z,99.99
2022-09-20T05:34:23.142Z,99.99
2022-09-20T05:35:13.144Z,99.99
2022-09-20T05:36:03.131Z,99.99
2022-09-20T05:36:53.127Z,99.99
2022-09-20T05:37:43.141Z,99.99
2022-09-20T05:38:33.103Z,99.99
2022-09-20T05:39:23.101Z,99.99
2022-09-20T05:40:13.133Z,99.99
2022-09-20T05:41:03.081Z,99.99
2022-09-20T05:41:53.059Z,99.99
2022-09-20T05:42:43.096Z,99.99
2022-09-20T05:43:33.068Z,99.99
2022-09-20T05:44:23.047Z,99.99
2022-09-20T05:45:13.035Z,99.99
2022-09-20T05:46:03.089Z,99.99
2022-09-20T05:46:53.007Z,99.99
2022-09-20T05:47:42.999Z,99.99
2022-09-20T05:48:32.989Z,99.99
2022-09-20T05:49:23.041Z,99.99
2022-09-20T05:50:12.967Z,99.99
2022-09-20T05:51:03.772Z,99.99
2022-09-20T05:51:52.960Z,99.99
2022-09-20T05:52:42.957Z,99.99
2022-09-20T05:53:32.928Z,99.99
2022-09-20T05:54:22.948Z,99.99
2022-09-20T05:55:13.188Z,99.99
2022-09-20T05:56:02.918Z,99.99
2022-09-20T05:56:52.898Z,99.99
2022-09-20T05:57:42.888Z,99.99
2022-09-20T05:58:32.877Z,99.99
2022-09-20T05:59:22.885Z,99.99
2022-09-20T06:00:12.863Z,99.99
2022-09-20T06:01:02.980Z,99.99
2022-09-20T06:01:52.893Z,99.99
2022-09-20T06:02:42.837Z,99.99
2022-09-20T06:03:32.827Z,99.99
2022-09-20T06:04:22.851Z,99.99
2022-09-20T06:05:12.808Z,99.99
2022-09-20T06:06:02.798Z,99.99
2022-09-20T06:06:52.815Z,99.99
2022-09-20T06:07:42.803Z,99.99
2022-09-20T06:08:32.796Z,99.99
2022-09-20T06:09:22.766Z,99.99
2022-09-20T06:10:12.745Z,99.99
2022-09-20T06:11:02.750Z,99.99
2022-09-20T06:11:52.735Z,99.99
2022-09-20T06:12:42.743Z,99.99
2022-09-20T06:13:32.714Z,99.99
2022-09-20T06:14:22.915Z,99.99
2022-09-20T06:15:12.703Z,99.99
2022-09-20T06:16:02.697Z,99.99
2022-09-20T06:16:52.751Z,99.99
2022-09-20T06:17:42.874Z,99.99
2022-09-20T06:18:32.664Z,99.99
2022-09-20T06:19:22.684Z,99.99
2022-09-20T06:20:12.742Z,99.99
2022-09-20T06:21:02.649Z,99.99
2022-09-20T06:21:52.625Z,99.99
2022-09-20T06:22:42.621Z,99.99
2022-09-20T06:23:32.608Z,99.99
2022-09-20T06:24:22.594Z,99.99
2022-09-20T06:25:12.583Z,99.99
2022-09-20T06:26:02.643Z,99.99
2022-09-20T06:26:52.571Z,99.99
2022-09-20T06:27:42.575Z,99.99
2022-09-20T06:28:32.548Z,99.99
2022-09-20T06:29:22.542Z,99.99
2022-09-20T06:30:12.535Z,99.99
2022-09-20T06:31:02.568Z,99.99
2022-09-20T06:31:52.755Z,99.99
2022-09-20T06:32:42.567Z,99.99
2022-09-20T06:33:32.493Z,99.99
2022-09-20T06:34:22.502Z,99.99
2022-09-20T06:35:12.501Z,99.99
2022-09-20T06:36:02.461Z,99.99
2022-09-20T06:36:52.460Z,99.99
2022-09-20T06:37:42.503Z,99.99
2022-09-20T06:38:32.442Z,99.99
2022-09-20T06:39:22.429Z,99.99
2022-09-20T06:40:12.455Z,99.99
2022-09-20T06:41:02.420Z,99.99
2022-09-20T06:41:52.409Z,99.99
2022-09-20T06:42:42.436Z,99.99
2022-09-20T06:43:32.411Z,99.99
2022-09-20T06:44:22.380Z,99.99
2022-09-20T06:45:12.396Z,99.99
2022-09-20T06:46:02.389Z,99.99
2022-09-20T06:46:52.348Z,99.99
2022-09-20T06:47:42.341Z,99.99
2022-09-20T06:48:32.337Z,99.99
2022-09-20T06:49:22.541Z,99.99
2022-09-20T06:50:12.310Z,99.99
2022-09-20T06:51:02.307Z,99.99
2022-09-20T06:51:52.299Z,99.99
2022-09-20T06:52:42.300Z,99.99
2022-09-20T06:53:32.276Z,99.99
2022-09-20T06:54:22.276Z,99.99
2022-09-20T06:55:12.287Z,99.99
2022-09-20T06:56:02.268Z,99.99
2022-09-20T06:56:52.249Z,99.99
2022-09-20T06:57:42.237Z,99.99
2022-09-20T06:58:32.240Z,99.99
2022-09-20T06:59:22.223Z,99.99
2022-09-20T07:00:12.198Z,99.99
2022-09-20T07:01:02.245Z,99.99
2022-09-20T07:01:52.247Z,99.99
2022-09-20T07:02:42.188Z,99.99
2022-09-20T07:03:32.158Z,99.99
2022-09-20T07:04:22.170Z,99.99
2022-09-20T07:05:12.178Z,99.99
2022-09-20T07:06:02.146Z,99.99
2022-09-20T07:06:52.358Z,99.99
2022-09-20T07:07:42.127Z,99.99
2022-09-20T07:08:32.136Z,99.99
2022-09-20T07:09:22.116Z,99.99
2022-09-20T07:10:12.135Z,99.99
2022-09-20T07:11:02.097Z,99.99
2022-09-20T07:11:52.073Z,99.99
2022-09-20T07:12:42.114Z,99.99
2022-09-20T07:13:32.056Z,99.99
2022-09-20T07:14:22.047Z,99.99
2022-09-20T07:15:12.075Z,99.99
2022-09-20T07:16:02.026Z,99.99
2022-09-20T07:16:52.049Z,99.99
2022-09-20T07:17:42.013Z,99.99
2022-09-20T07:18:32.034Z,99.99
2022-09-20T07:19:22.022Z,99.99
2022-09-20T07:20:12.016Z,99.99
2022-09-20T07:21:01.979Z,99.99
2022-09-20T07:21:51.963Z,99.99
2022-09-20T07:22:41.964Z,99.99
2022-09-20T07:23:31.952Z,99.99
2022-09-20T07:24:22.156Z,99.99
2022-09-20T07:25:11.953Z,99.99
2022-09-20T07:26:01.927Z,99.99
2022-09-20T07:26:51.913Z,99.99
2022-09-20T07:27:41.902Z,99.99
2022-09-20T07:28:31.919Z,99.99
2022-09-20T07:29:21.891Z,99.99
2022-09-20T07:30:11.910Z,99.99
2022-09-20T07:31:01.878Z,99.99
2022-09-20T07:31:51.913Z,99.99
2022-09-20T07:32:41.850Z,99.99
2022-09-20T07:33:31.849Z,99.99
2022-09-20T07:34:21.831Z,99.99
2022-09-20T07:35:11.843Z,99.99
2022-09-20T07:36:01.842Z,99.99
2022-09-20T07:36:51.802Z,99.99
2022-09-20T07:37:41.802Z,99.99
2022-09-20T07:38:31.788Z,99.99
2022-09-20T07:39:21.771Z,99.99
2022-09-20T07:40:11.787Z,99.99
2022-09-20T07:41:01.784Z,99.99
2022-09-20T07:41:51.773Z,99.99
2022-09-20T07:42:41.744Z,99.99
2022-09-20T07:43:31.726Z,99.99
2022-09-20T07:44:21.718Z,99.99
2022-09-20T07:45:11.768Z,99.99
2022-09-20T07:46:01.764Z,99.99
2022-09-20T07:46:51.699Z,99.99
2022-09-20T07:47:41.907Z,99.99
2022-09-20T07:48:31.673Z,99.99
2022-09-20T07:49:21.659Z,99.99
2022-09-20T07:50:11.665Z,99.99
2022-09-20T07:51:03.832Z,99.99
2022-09-20T07:51:51.639Z,99.99
2022-09-20T07:52:41.674Z,99.99
2022-09-20T07:53:31.679Z,99.99
2022-09-20T07:54:21.606Z,99.99
2022-09-20T07:55:11.610Z,99.99
2022-09-20T07:56:01.596Z,99.99
2022-09-20T07:56:51.570Z,99.99
2022-09-20T07:57:41.572Z,99.99
2022-09-20T07:58:31.559Z,99.99
2022-09-20T07:59:21.680Z,99.99
2022-09-20T08:00:11.753Z,99.99
2022-09-20T08:01:01.627Z,99.99
2022-09-20T08:01:51.580Z,99.99
2022-09-20T08:02:41.515Z,99.99
2022-09-20T08:03:31.499Z,99.99
2022-09-20T08:04:21.524Z,99.99
2022-09-20T08:05:11.736Z,99.99
2022-09-20T08:06:01.477Z,99.99
2022-09-20T08:06:51.471Z,99.96
2022-09-20T08:07:41.477Z,99.96
2022-09-20T08:08:31.467Z,99.65
2022-09-20T08:09:21.437Z,99.86
2022-09-20T08:10:11.431Z,99.96
2022-09-20T08:11:01.450Z,99.99
2022-09-20T08:11:51.486Z,99.99
2022-09-20T08:14:22.644Z,99.91
2022-09-20T08:15:12.127Z,99.91
2022-09-20T08:16:01.418Z,99.91
2022-09-20T08:16:51.423Z,99.99
2022-09-20T08:17:41.372Z,99.99
2022-09-20T08:18:31.412Z,99.99
2022-09-20T08:19:21.342Z,99.99
2022-09-20T08:20:11.318Z,99.91
2022-09-20T08:21:01.310Z,99.81
2022-09-20T08:21:51.302Z,99.81
2022-09-20T08:22:41.314Z,99.99
2022-09-20T08:23:31.307Z,99.99
2022-09-20T08:24:21.297Z,99.99
2022-09-20T08:25:11.277Z,99.99
2022-09-20T08:26:01.257Z,99.99
2022-09-20T08:26:51.247Z,99.99
2022-09-20T08:27:41.234Z,99.99
2022-09-20T08:28:31.223Z,99.99
2022-09-20T08:29:21.454Z,99.99
2022-09-20T08:30:11.226Z,99.99
2022-09-20T08:31:01.207Z,99.99
2022-09-20T08:31:51.244Z,99.99
2022-09-20T08:32:41.185Z,99.99
2022-09-20T08:33:31.181Z,99.99
2022-09-20T08:34:21.157Z,99.99
2022-09-20T08:35:11.366Z,99.99
2022-09-20T08:36:01.164Z,99.99
2022-09-20T08:36:51.147Z,99.99
2022-09-20T08:37:41.145Z,99.99
2022-09-20T08:40:12.160Z,99.99
2022-09-20T08:41:01.116Z,99.99
2022-09-20T08:41:51.094Z,99.99
2022-09-20T08:42:44.620Z,99.99
2022-09-20T08:43:31.064Z,99.99
2022-09-20T08:44:21.067Z,99.99
2022-09-20T08:45:11.358Z,99.99
2022-09-20T08:46:05.493Z,99.99
2022-09-20T08:46:51.225Z,99.99
2022-09-20T08:47:41.035Z,99.99
2022-09-20T08:48:31.005Z,99.99
2022-09-20T08:49:21.001Z,99.99
2022-09-20T08:50:11.554Z,99.99
2022-09-20T08:51:05.770Z,99.99
2022-09-20T08:51:50.956Z,99.99
2022-09-20T08:52:41.004Z,99.99
2022-09-20T08:53:30.967Z,99.99
2022-09-20T08:54:20.945Z,99.99
2022-09-20T08:55:10.946Z,99.99
2022-09-20T08:56:00.926Z,99.99
2022-09-20T08:56:50.906Z,99.99
2022-09-20T08:57:40.913Z,99.99
2022-09-20T08:58:30.961Z,99.99
2022-09-20T08:59:20.902Z,99.99
2022-09-20T09:00:10.893Z,99.99
2022-09-20T09:01:00.946Z,99.99
2022-09-20T09:01:50.845Z,99.99
2022-09-20T09:02:40.884Z,99.99
2022-09-20T09:03:30.843Z,99.99
2022-09-20T09:04:21.306Z,99.99
2022-09-20T09:05:10.851Z,99.99
2022-09-20T09:06:00.803Z,99.99
2022-09-20T09:06:50.814Z,99.99
2022-09-20T09:07:40.795Z,99.54
2022-09-20T09:08:30.782Z,99.38
2022-09-20T09:09:20.782Z,99.49
2022-09-20T09:10:10.790Z,99.49
2022-09-20T09:11:00.763Z,99.54
2022-09-20T09:11:50.749Z,99.34
2022-09-20T09:12:40.735Z,99.44
2022-09-20T09:13:30.731Z,98.99
2022-09-20T09:14:20.716Z,98.88
2022-09-20T09:15:10.730Z,98.68
2022-09-20T09:16:00.944Z,98.94
2022-09-20T09:16:50.753Z,99.45
2022-09-20T09:17:40.675Z,99.25
2022-09-20T09:18:31.694Z,99.15
2022-09-20T09:19:20.663Z,98.90
2022-09-20T09:20:10.651Z,98.79
2022-09-20T09:21:00.631Z,98.24
2022-09-20T09:21:50.661Z,98.13
2022-09-20T09:22:40.648Z,97.27
2022-09-20T09:23:30.631Z,97.27
2022-09-20T09:24:20.630Z,96.66
2022-09-20T09:25:10.663Z,94.77
2022-09-20T09:26:00.594Z,93.54
2022-09-20T09:26:50.590Z,92.47
2022-09-20T09:27:40.808Z,92.58
2022-09-20T09:28:30.568Z,93.25
2022-09-20T09:29:20.582Z,92.94
2022-09-20T09:30:10.562Z,92.59
2022-09-20T09:31:00.520Z,91.37
2022-09-20T09:31:50.615Z,90.81
2022-09-20T09:32:40.518Z,90.71
2022-09-20T09:33:30.576Z,90.67
2022-09-20T09:34:20.500Z,91.08
2022-09-20T09:35:10.507Z,88.49
2022-09-20T09:36:00.479Z,88.49
2022-09-20T09:36:50.479Z,86.41
2022-09-20T09:37:40.461Z,85.49
2022-09-20T09:38:30.460Z,84.84
2022-09-20T09:39:20.653Z,84.03
2022-09-20T09:40:10.483Z,82.09
2022-09-20T09:41:00.411Z,78.89
2022-09-20T09:41:50.409Z,79.00
2022-09-20T09:42:40.401Z,79.30
2022-09-20T09:43:30.388Z,79.61
2022-09-20T09:44:20.385Z,78.80
2022-09-20T09:45:10.408Z,82.26
2022-09-20T09:46:00.418Z,80.83
2022-09-20T09:46:50.378Z,81.13
2022-09-20T09:47:40.376Z,80.63
2022-09-20T09:48:30.340Z,79.06
2022-09-20T09:49:20.336Z,77.64
2022-09-20T09:50:10.329Z,75.91
2022-09-20T09:51:00.338Z,77.84
2022-09-20T09:51:50.309Z,82.52
2022-09-20T09:52:40.294Z,83.54
2022-09-20T09:53:30.283Z,85.37
2022-09-20T09:54:20.267Z,86.08
2022-09-20T09:55:10.278Z,86.59
2022-09-20T09:56:00.249Z,84.97
2022-09-20T09:56:50.310Z,74.69
2022-09-20T09:57:40.231Z,77.53
2022-09-20T09:58:30.229Z,80.90
2022-09-20T09:59:20.219Z,83.34
2022-09-20T10:00:16.436Z,84.05
2022-09-20T10:01:01.271Z,84.15
2022-09-20T10:01:50.340Z,84.35
2022-09-20T10:02:40.244Z,75.81
2022-09-20T10:03:30.180Z,74.18
2022-09-20T10:04:20.187Z,76.01
2022-09-20T10:05:10.163Z,75.67
2022-09-20T10:06:00.210Z,70.58
2022-09-20T10:06:52.357Z,69.87
2022-09-20T10:07:40.128Z,66.41
2022-09-20T10:08:30.137Z,69.67
2022-09-20T10:09:20.100Z,68.96
2022-09-20T10:10:10.096Z,66.11
2022-09-20T10:11:00.088Z,69.23
2022-09-20T10:11:50.079Z,61.10
2022-09-20T10:12:40.091Z,63.74
2022-09-20T10:13:30.145Z,66.69
2022-09-20T10:14:20.078Z,68.82
2022-09-20T10:15:10.060Z,67.16
2022-09-20T10:16:00.038Z,63.30
2022-09-20T10:16:50.127Z,60.15
2022-09-20T10:17:40.018Z,57.71
2022-09-20T10:18:30.081Z,56.26
2022-09-20T10:19:22.681Z,56.26
2022-09-20T10:20:09.996Z,57.28
2022-09-20T10:20:59.980Z,58.91
2022-09-20T10:21:49.993Z,58.27
2022-09-20T10:22:39.958Z,61.01
2022-09-20T10:23:58.726Z,61.82
2022-09-20T10:24:20.975Z,62.43
2022-09-20T10:25:09.936Z,64.53
2022-09-20T10:25:59.917Z,63.01
2022-09-20T10:26:49.926Z,62.13
2022-09-20T10:27:39.902Z,61.82
2022-09-20T10:28:29.914Z,65.99
2022-09-20T10:29:19.987Z,66.08
2022-09-20T10:30:09.916Z,67.10
2022-09-20T10:30:59.895Z,66.39
2022-09-20T10:31:49.864Z,68.52
2022-09-20T10:32:39.847Z,64.56
2022-09-20T10:33:29.836Z,65.17
2022-09-20T10:34:19.836Z,64.76
2022-09-20T10:35:09.838Z,65.91
2022-09-20T10:36:00.546Z,64.90
2022-09-20T10:36:49.828Z,63.98
2022-09-20T10:37:39.803Z,60.66
2022-09-20T10:38:29.791Z,61.88
2022-09-20T10:39:19.768Z,61.98
2022-09-20T10:40:09.889Z,63.20
2022-09-20T10:40:59.751Z,62.70
2022-09-20T10:41:49.948Z,62.39
2022-09-20T10:42:39.748Z,63.30
2022-09-20T10:43:29.738Z,62.08
2022-09-20T10:44:19.717Z,64.22
2022-09-20T10:45:09.717Z,61.68
2022-09-20T10:46:27.654Z,61.37
2022-09-20T10:46:50.742Z,66.15